sensor_id;sensor_type;location;lat;lon;timestamp;P1;durP1;ratioP1;P2;durP2;ratioP2
74503;SDS011;62988;55.776;37.544;2022-12-07T00:00:55;5.10;;;1.52;;
74503;SDS011;62988;55.776;37.544;2022-12-07T00:03:28;4.05;;;1.42;;
74503;SDS011;62988;55.776;37.544;2022-12-07T00:05:56;5.55;;;1.20;;
74503;SDS011;62988;55.776;37.544;2022-12-07T00:08:23;5.15;;;1.80;;
74503;SDS011;62988;55.776;37.544;2022-12-07T00:10:48;4.65;;;1.30;;
74503;SDS011;62988;55.776;37.544;2022-12-07T00:13:14;6.07;;;1.75;;
74503;SDS011;62988;55.776;37.544;2022-12-07T00:15:39;6.13;;;1.35;;
74503;SDS011;62988;55.776;37.544;2022-12-07T00:18:04;8.18;;;1.83;;
74503;SDS011;62988;55.776;37.544;2022-12-07T00:20:30;4.25;;;1.15;;
74503;SDS011;62988;55.776;37.544;2022-12-07T00:22:56;10.90;;;1.55;;
74503;SDS011;62988;55.776;37.544;2022-12-07T00:25:21;4.85;;;1.48;;
74503;SDS011;62988;55.776;37.544;2022-12-07T00:27:47;4.20;;;1.30;;
74503;SDS011;62988;55.776;37.544;2022-12-07T00:30:12;3.80;;;1.40;;
74503;SDS011;62988;55.776;37.544;2022-12-07T00:32:38;4.32;;;1.23;;
74503;SDS011;62988;55.776;37.544;2022-12-07T00:35:04;4.70;;;1.70;;
74503;SDS011;62988;55.776;37.544;2022-12-07T00:37:29;5.25;;;1.67;;
74503;SDS011;62988;55.776;37.544;2022-12-07T00:39:55;3.88;;;1.77;;
74503;SDS011;62988;55.776;37.544;2022-12-07T00:42:20;6.45;;;2.00;;
74503;SDS011;62988;55.776;37.544;2022-12-07T00:44:46;5.85;;;2.28;;
74503;SDS011;62988;55.776;37.544;2022-12-07T00:47:11;6.57;;;1.60;;
74503;SDS011;62988;55.776;37.544;2022-12-07T00:49:37;5.53;;;2.13;;
74503;SDS011;62988;55.776;37.544;2022-12-07T00:52:02;5.28;;;2.38;;
74503;SDS011;62988;55.776;37.544;2022-12-07T00:54:28;4.55;;;1.52;;
74503;SDS011;62988;55.776;37.544;2022-12-07T00:56:54;6.28;;;1.67;;
74503;SDS011;62988;55.776;37.544;2022-12-07T00:59:19;5.43;;;1.63;;
74503;SDS011;62988;55.776;37.544;2022-12-07T01:01:45;9.60;;;1.90;;
74503;SDS011;62988;55.776;37.544;2022-12-07T01:04:10;6.00;;;2.00;;
74503;SDS011;62988;55.776;37.544;2022-12-07T01:06:36;5.88;;;2.20;;
74503;SDS011;62988;55.776;37.544;2022-12-07T01:09:01;5.68;;;1.40;;
74503;SDS011;62988;55.776;37.544;2022-12-07T01:11:29;4.80;;;1.70;;
74503;SDS011;62988;55.776;37.544;2022-12-07T01:13:55;3.30;;;1.60;;
74503;SDS011;62988;55.776;37.544;2022-12-07T01:16:23;4.72;;;1.50;;
74503;SDS011;62988;55.776;37.544;2022-12-07T01:18:52;4.55;;;1.33;;
74503;SDS011;62988;55.776;37.544;2022-12-07T01:21:20;4.75;;;1.38;;
74503;SDS011;62988;55.776;37.544;2022-12-07T01:23:54;4.22;;;1.98;;
74503;SDS011;62988;55.776;37.544;2022-12-07T01:26:20;4.05;;;1.02;;
74503;SDS011;62988;55.776;37.544;2022-12-07T01:28:47;3.88;;;1.58;;
74503;SDS011;62988;55.776;37.544;2022-12-07T01:31:15;5.63;;;1.73;;
74503;SDS011;62988;55.776;37.544;2022-12-07T01:33:43;4.20;;;1.92;;
74503;SDS011;62988;55.776;37.544;2022-12-07T01:36:21;4.80;;;1.38;;
74503;SDS011;62988;55.776;37.544;2022-12-07T01:38:52;2.97;;;1.35;;
74503;SDS011;62988;55.776;37.544;2022-12-07T01:41:21;3.70;;;1.20;;
74503;SDS011;62988;55.776;37.544;2022-12-07T01:46:47;6.63;;;1.55;;
74503;SDS011;62988;55.776;37.544;2022-12-07T01:49:17;4.60;;;1.58;;
74503;SDS011;62988;55.776;37.544;2022-12-07T01:51:47;4.80;;;1.75;;
74503;SDS011;62988;55.776;37.544;2022-12-07T01:54:16;3.33;;;1.58;;
74503;SDS011;62988;55.776;37.544;2022-12-07T01:56:47;3.55;;;1.23;;
74503;SDS011;62988;55.776;37.544;2022-12-07T01:59:17;3.47;;;1.50;;
74503;SDS011;62988;55.776;37.544;2022-12-07T02:01:44;4.70;;;1.73;;
74503;SDS011;62988;55.776;37.544;2022-12-07T02:04:10;4.78;;;1.45;;
74503;SDS011;62988;55.776;37.544;2022-12-07T02:06:37;8.52;;;1.85;;
74503;SDS011;62988;55.776;37.544;2022-12-07T02:09:03;4.97;;;1.70;;
74503;SDS011;62988;55.776;37.544;2022-12-07T02:11:29;4.18;;;1.60;;
74503;SDS011;62988;55.776;37.544;2022-12-07T02:13:56;3.95;;;1.65;;
74503;SDS011;62988;55.776;37.544;2022-12-07T02:30:57;10.05;;;1.88;;
74503;SDS011;62988;55.776;37.544;2022-12-07T02:33:31;8.60;;;1.35;;
74503;SDS011;62988;55.776;37.544;2022-12-07T02:36:12;5.40;;;2.08;;
74503;SDS011;62988;55.776;37.544;2022-12-07T02:39:00;5.93;;;2.03;;
74503;SDS011;62988;55.776;37.544;2022-12-07T02:41:37;3.00;;;1.05;;
74503;SDS011;62988;55.776;37.544;2022-12-07T02:44:08;7.43;;;1.83;;
74503;SDS011;62988;55.776;37.544;2022-12-07T02:46:42;5.28;;;1.50;;
74503;SDS011;62988;55.776;37.544;2022-12-07T02:49:09;6.82;;;1.92;;
74503;SDS011;62988;55.776;37.544;2022-12-07T02:51:39;3.85;;;0.82;;
74503;SDS011;62988;55.776;37.544;2022-12-07T02:54:14;4.65;;;1.60;;
74503;SDS011;62988;55.776;37.544;2022-12-07T03:02:23;5.43;;;1.50;;
74503;SDS011;62988;55.776;37.544;2022-12-07T03:16:15;3.67;;;1.40;;
74503;SDS011;62988;55.776;37.544;2022-12-07T03:18:45;4.93;;;1.83;;
74503;SDS011;62988;55.776;37.544;2022-12-07T03:21:16;5.70;;;1.77;;
74503;SDS011;62988;55.776;37.544;2022-12-07T03:26:13;4.97;;;1.30;;
74503;SDS011;62988;55.776;37.544;2022-12-07T03:28:42;6.00;;;1.67;;
74503;SDS011;62988;55.776;37.544;2022-12-07T03:31:22;6.90;;;1.63;;
74503;SDS011;62988;55.776;37.544;2022-12-07T03:33:57;7.80;;;2.22;;
74503;SDS011;62988;55.776;37.544;2022-12-07T03:36:26;4.68;;;2.10;;
74503;SDS011;62988;55.776;37.544;2022-12-07T03:39:04;6.30;;;2.17;;
74503;SDS011;62988;55.776;37.544;2022-12-07T03:41:42;5.45;;;2.00;;
74503;SDS011;62988;55.776;37.544;2022-12-07T03:44:07;3.75;;;2.10;;
74503;SDS011;62988;55.776;37.544;2022-12-07T03:46:40;4.57;;;1.77;;
74503;SDS011;62988;55.776;37.544;2022-12-07T03:52:02;7.32;;;1.65;;
74503;SDS011;62988;55.776;37.544;2022-12-07T03:54:34;6.38;;;1.85;;
74503;SDS011;62988;55.776;37.544;2022-12-07T03:57:04;4.40;;;1.67;;
74503;SDS011;62988;55.776;37.544;2022-12-07T03:59:32;5.55;;;1.60;;
74503;SDS011;62988;55.776;37.544;2022-12-07T04:02:02;6.38;;;2.42;;
74503;SDS011;62988;55.776;37.544;2022-12-07T04:04:30;4.82;;;1.77;;
74503;SDS011;62988;55.776;37.544;2022-12-07T04:06:55;6.05;;;1.88;;
74503;SDS011;62988;55.776;37.544;2022-12-07T04:09:21;5.45;;;1.75;;
74503;SDS011;62988;55.776;37.544;2022-12-07T04:11:47;6.85;;;2.63;;
74503;SDS011;62988;55.776;37.544;2022-12-07T04:14:12;4.28;;;1.58;;
74503;SDS011;62988;55.776;37.544;2022-12-07T04:16:47;4.30;;;1.60;;
74503;SDS011;62988;55.776;37.544;2022-12-07T04:19:14;3.80;;;0.98;;
74503;SDS011;62988;55.776;37.544;2022-12-07T04:21:41;5.13;;;1.77;;
74503;SDS011;62988;55.776;37.544;2022-12-07T04:24:06;6.95;;;2.70;;
74503;SDS011;62988;55.776;37.544;2022-12-07T04:26:32;3.47;;;1.40;;
74503;SDS011;62988;55.776;37.544;2022-12-07T04:28:58;8.90;;;1.98;;
74503;SDS011;62988;55.776;37.544;2022-12-07T04:31:23;3.60;;;1.80;;
74503;SDS011;62988;55.776;37.544;2022-12-07T04:33:49;6.35;;;2.08;;
74503;SDS011;62988;55.776;37.544;2022-12-07T04:36:14;4.47;;;1.60;;
74503;SDS011;62988;55.776;37.544;2022-12-07T04:38:40;3.88;;;1.33;;
74503;SDS011;62988;55.776;37.544;2022-12-07T04:41:06;5.45;;;1.85;;
74503;SDS011;62988;55.776;37.544;2022-12-07T04:43:32;7.68;;;2.45;;
74503;SDS011;62988;55.776;37.544;2022-12-07T04:45:58;3.75;;;1.90;;
74503;SDS011;62988;55.776;37.544;2022-12-07T04:48:24;7.88;;;2.05;;
74503;SDS011;62988;55.776;37.544;2022-12-07T04:50:49;3.42;;;1.42;;
74503;SDS011;62988;55.776;37.544;2022-12-07T04:53:15;4.05;;;1.77;;
74503;SDS011;62988;55.776;37.544;2022-12-07T04:55:41;6.30;;;1.70;;
74503;SDS011;62988;55.776;37.544;2022-12-07T04:58:07;5.32;;;1.17;;
74503;SDS011;62988;55.776;37.544;2022-12-07T05:00:32;2.80;;;1.25;;
74503;SDS011;62988;55.776;37.544;2022-12-07T05:02:58;7.30;;;2.40;;
74503;SDS011;62988;55.776;37.544;2022-12-07T05:05:23;4.28;;;1.50;;
74503;SDS011;62988;55.776;37.544;2022-12-07T05:07:49;6.75;;;2.72;;
74503;SDS011;62988;55.776;37.544;2022-12-07T05:10:15;4.10;;;1.45;;
74503;SDS011;62988;55.776;37.544;2022-12-07T05:12:41;4.57;;;1.70;;
74503;SDS011;62988;55.776;37.544;2022-12-07T05:15:06;6.75;;;1.70;;
74503;SDS011;62988;55.776;37.544;2022-12-07T05:17:32;4.45;;;1.65;;
74503;SDS011;62988;55.776;37.544;2022-12-07T05:19:58;4.78;;;1.40;;
74503;SDS011;62988;55.776;37.544;2022-12-07T05:22:23;6.22;;;2.08;;
74503;SDS011;62988;55.776;37.544;2022-12-07T05:24:53;4.57;;;1.85;;
74503;SDS011;62988;55.776;37.544;2022-12-07T05:27:19;5.38;;;1.60;;
74503;SDS011;62988;55.776;37.544;2022-12-07T05:29:45;5.95;;;1.80;;
74503;SDS011;62988;55.776;37.544;2022-12-07T05:32:11;4.70;;;1.77;;
74503;SDS011;62988;55.776;37.544;2022-12-07T05:34:36;4.07;;;1.85;;
74503;SDS011;62988;55.776;37.544;2022-12-07T05:37:02;5.28;;;1.85;;
74503;SDS011;62988;55.776;37.544;2022-12-07T05:39:27;5.60;;;1.77;;
74503;SDS011;62988;55.776;37.544;2022-12-07T05:41:53;5.30;;;2.35;;
74503;SDS011;62988;55.776;37.544;2022-12-07T05:44:38;5.35;;;1.73;;
74503;SDS011;62988;55.776;37.544;2022-12-07T05:47:08;7.15;;;1.85;;
74503;SDS011;62988;55.776;37.544;2022-12-07T05:49:34;7.00;;;2.28;;
74503;SDS011;62988;55.776;37.544;2022-12-07T05:51:59;6.03;;;2.63;;
74503;SDS011;62988;55.776;37.544;2022-12-07T05:54:25;7.60;;;2.55;;
74503;SDS011;62988;55.776;37.544;2022-12-07T05:56:51;4.88;;;1.80;;
74503;SDS011;62988;55.776;37.544;2022-12-07T05:59:16;9.05;;;1.90;;
74503;SDS011;62988;55.776;37.544;2022-12-07T06:02:21;7.72;;;2.30;;
74503;SDS011;62988;55.776;37.544;2022-12-07T06:04:42;6.85;;;2.70;;
74503;SDS011;62988;55.776;37.544;2022-12-07T06:07:10;7.90;;;2.60;;
74503;SDS011;62988;55.776;37.544;2022-12-07T06:09:36;9.15;;;2.60;;
74503;SDS011;62988;55.776;37.544;2022-12-07T06:12:03;7.03;;;2.35;;
74503;SDS011;62988;55.776;37.544;2022-12-07T06:14:48;5.97;;;1.85;;
74503;SDS011;62988;55.776;37.544;2022-12-07T06:17:14;9.15;;;3.08;;
74503;SDS011;62988;55.776;37.544;2022-12-07T06:19:40;5.75;;;1.92;;
74503;SDS011;62988;55.776;37.544;2022-12-07T06:22:07;8.10;;;2.63;;
74503;SDS011;62988;55.776;37.544;2022-12-07T06:24:34;8.05;;;2.33;;
74503;SDS011;62988;55.776;37.544;2022-12-07T06:27:00;7.00;;;2.60;;
74503;SDS011;62988;55.776;37.544;2022-12-07T06:29:26;9.18;;;2.72;;
74503;SDS011;62988;55.776;37.544;2022-12-07T06:31:51;7.88;;;2.75;;
74503;SDS011;62988;55.776;37.544;2022-12-07T06:34:18;6.35;;;2.55;;
74503;SDS011;62988;55.776;37.544;2022-12-07T06:36:45;6.00;;;2.22;;
74503;SDS011;62988;55.776;37.544;2022-12-07T06:39:16;5.88;;;2.55;;
74503;SDS011;62988;55.776;37.544;2022-12-07T06:41:43;6.30;;;2.10;;
74503;SDS011;62988;55.776;37.544;2022-12-07T06:44:08;5.38;;;2.35;;
74503;SDS011;62988;55.776;37.544;2022-12-07T06:46:34;5.35;;;2.55;;
74503;SDS011;62988;55.776;37.544;2022-12-07T06:49:03;8.35;;;3.05;;
74503;SDS011;62988;55.776;37.544;2022-12-07T06:51:30;5.95;;;1.85;;
74503;SDS011;62988;55.776;37.544;2022-12-07T06:53:56;8.88;;;3.50;;
74503;SDS011;62988;55.776;37.544;2022-12-07T06:56:22;6.18;;;2.70;;
74503;SDS011;62988;55.776;37.544;2022-12-07T06:58:48;6.35;;;2.80;;
74503;SDS011;62988;55.776;37.544;2022-12-07T07:01:15;7.60;;;2.42;;
74503;SDS011;62988;55.776;37.544;2022-12-07T07:03:42;11.57;;;3.17;;
74503;SDS011;62988;55.776;37.544;2022-12-07T07:06:08;9.75;;;3.22;;
74503;SDS011;62988;55.776;37.544;2022-12-07T07:08:35;8.90;;;3.10;;
74503;SDS011;62988;55.776;37.544;2022-12-07T07:11:01;10.80;;;3.28;;
74503;SDS011;62988;55.776;37.544;2022-12-07T07:13:27;8.45;;;3.03;;
74503;SDS011;62988;55.776;37.544;2022-12-07T07:15:53;6.82;;;2.92;;
74503;SDS011;62988;55.776;37.544;2022-12-07T07:18:19;9.73;;;3.90;;
74503;SDS011;62988;55.776;37.544;2022-12-07T07:20:45;8.38;;;3.20;;
74503;SDS011;62988;55.776;37.544;2022-12-07T07:23:11;9.25;;;3.78;;
74503;SDS011;62988;55.776;37.544;2022-12-07T07:25:37;5.68;;;2.33;;
74503;SDS011;62988;55.776;37.544;2022-12-07T07:28:03;7.68;;;2.83;;
74503;SDS011;62988;55.776;37.544;2022-12-07T07:30:28;10.35;;;2.95;;
74503;SDS011;62988;55.776;37.544;2022-12-07T07:32:58;7.03;;;2.60;;
74503;SDS011;62988;55.776;37.544;2022-12-07T07:37:50;7.38;;;3.85;;
74503;SDS011;62988;55.776;37.544;2022-12-07T07:40:16;10.43;;;3.47;;
74503;SDS011;62988;55.776;37.544;2022-12-07T07:42:41;8.38;;;2.90;;
74503;SDS011;62988;55.776;37.544;2022-12-07T07:45:07;7.85;;;2.85;;
74503;SDS011;62988;55.776;37.544;2022-12-07T07:47:33;8.25;;;3.42;;
74503;SDS011;62988;55.776;37.544;2022-12-07T07:49:58;6.38;;;2.22;;
74503;SDS011;62988;55.776;37.544;2022-12-07T07:52:24;8.35;;;3.10;;
74503;SDS011;62988;55.776;37.544;2022-12-07T07:54:49;6.35;;;2.60;;
74503;SDS011;62988;55.776;37.544;2022-12-07T07:57:16;8.85;;;3.60;;
74503;SDS011;62988;55.776;37.544;2022-12-07T07:59:42;8.35;;;3.03;;
74503;SDS011;62988;55.776;37.544;2022-12-07T08:02:09;7.65;;;2.95;;
74503;SDS011;62988;55.776;37.544;2022-12-07T08:04:40;7.03;;;3.05;;
74503;SDS011;62988;55.776;37.544;2022-12-07T08:07:05;10.50;;;3.25;;
74503;SDS011;62988;55.776;37.544;2022-12-07T08:09:31;8.35;;;2.80;;
74503;SDS011;62988;55.776;37.544;2022-12-07T08:11:57;8.95;;;3.30;;
74503;SDS011;62988;55.776;37.544;2022-12-07T08:14:22;8.05;;;3.08;;
74503;SDS011;62988;55.776;37.544;2022-12-07T08:16:49;8.73;;;2.67;;
74503;SDS011;62988;55.776;37.544;2022-12-07T08:19:14;5.78;;;2.28;;
74503;SDS011;62988;55.776;37.544;2022-12-07T08:21:40;9.18;;;3.00;;
74503;SDS011;62988;55.776;37.544;2022-12-07T08:24:06;10.30;;;4.22;;
74503;SDS011;62988;55.776;37.544;2022-12-07T08:26:31;8.00;;;2.97;;
74503;SDS011;62988;55.776;37.544;2022-12-07T08:28:57;7.15;;;3.45;;
74503;SDS011;62988;55.776;37.544;2022-12-07T08:31:22;7.72;;;3.08;;
74503;SDS011;62988;55.776;37.544;2022-12-07T08:33:49;8.82;;;3.17;;
74503;SDS011;62988;55.776;37.544;2022-12-07T08:36:14;10.95;;;2.90;;
74503;SDS011;62988;55.776;37.544;2022-12-07T08:38:41;10.85;;;3.70;;
74503;SDS011;62988;55.776;37.544;2022-12-07T08:41:07;9.48;;;2.90;;
74503;SDS011;62988;55.776;37.544;2022-12-07T08:43:34;7.88;;;3.05;;
74503;SDS011;62988;55.776;37.544;2022-12-07T08:46:06;8.50;;;3.17;;
74503;SDS011;62988;55.776;37.544;2022-12-07T08:49:04;9.48;;;3.20;;
74503;SDS011;62988;55.776;37.544;2022-12-07T08:51:35;14.77;;;4.30;;
74503;SDS011;62988;55.776;37.544;2022-12-07T08:54:01;7.40;;;3.08;;
74503;SDS011;62988;55.776;37.544;2022-12-07T08:56:31;7.88;;;3.20;;
74503;SDS011;62988;55.776;37.544;2022-12-07T08:58:57;7.72;;;3.22;;
74503;SDS011;62988;55.776;37.544;2022-12-07T09:01:23;9.50;;;2.88;;
74503;SDS011;62988;55.776;37.544;2022-12-07T09:03:48;7.50;;;3.38;;
74503;SDS011;62988;55.776;37.544;2022-12-07T09:06:14;7.15;;;3.33;;
74503;SDS011;62988;55.776;37.544;2022-12-07T09:08:40;7.43;;;3.03;;
74503;SDS011;62988;55.776;37.544;2022-12-07T09:11:08;8.25;;;3.50;;
74503;SDS011;62988;55.776;37.544;2022-12-07T09:13:34;6.82;;;2.75;;
74503;SDS011;62988;55.776;37.544;2022-12-07T09:15:59;11.52;;;3.13;;
74503;SDS011;62988;55.776;37.544;2022-12-07T09:18:26;9.73;;;3.08;;
74503;SDS011;62988;55.776;37.544;2022-12-07T09:20:51;7.63;;;3.22;;
74503;SDS011;62988;55.776;37.544;2022-12-07T09:23:17;4.75;;;2.35;;
74503;SDS011;62988;55.776;37.544;2022-12-07T09:25:42;7.78;;;3.20;;
74503;SDS011;62988;55.776;37.544;2022-12-07T09:28:08;4.00;;;1.95;;
74503;SDS011;62988;55.776;37.544;2022-12-07T09:30:34;6.78;;;3.05;;
74503;SDS011;62988;55.776;37.544;2022-12-07T09:32:59;8.02;;;3.53;;
74503;SDS011;62988;55.776;37.544;2022-12-07T09:35:25;9.25;;;4.22;;
74503;SDS011;62988;55.776;37.544;2022-12-07T09:37:51;8.13;;;3.00;;
74503;SDS011;62988;55.776;37.544;2022-12-07T09:40:17;8.05;;;3.70;;
74503;SDS011;62988;55.776;37.544;2022-12-07T09:42:47;7.22;;;3.38;;
74503;SDS011;62988;55.776;37.544;2022-12-07T09:47:42;6.85;;;2.72;;
74503;SDS011;62988;55.776;37.544;2022-12-07T09:50:15;6.35;;;2.78;;
74503;SDS011;62988;55.776;37.544;2022-12-07T09:52:44;11.95;;;3.40;;
74503;SDS011;62988;55.776;37.544;2022-12-07T09:55:13;6.22;;;2.70;;
74503;SDS011;62988;55.776;37.544;2022-12-07T09:57:41;5.50;;;2.42;;
74503;SDS011;62988;55.776;37.544;2022-12-07T10:00:15;7.60;;;2.88;;
74503;SDS011;62988;55.776;37.544;2022-12-07T10:02:58;8.70;;;2.95;;
74503;SDS011;62988;55.776;37.544;2022-12-07T10:05:47;8.93;;;3.85;;
74503;SDS011;62988;55.776;37.544;2022-12-07T10:08:13;6.20;;;3.20;;
74503;SDS011;62988;55.776;37.544;2022-12-07T10:10:40;7.20;;;3.10;;
74503;SDS011;62988;55.776;37.544;2022-12-07T10:13:18;5.65;;;2.28;;
74503;SDS011;62988;55.776;37.544;2022-12-07T10:15:51;6.93;;;2.35;;
74503;SDS011;62988;55.776;37.544;2022-12-07T10:21:09;7.75;;;2.85;;
74503;SDS011;62988;55.776;37.544;2022-12-07T10:24:01;8.30;;;3.10;;
74503;SDS011;62988;55.776;37.544;2022-12-07T10:26:36;5.03;;;2.10;;
74503;SDS011;62988;55.776;37.544;2022-12-07T10:31:41;6.22;;;2.42;;
74503;SDS011;62988;55.776;37.544;2022-12-07T10:34:24;8.80;;;3.35;;
74503;SDS011;62988;55.776;37.544;2022-12-07T10:37:06;12.00;;;3.80;;
74503;SDS011;62988;55.776;37.544;2022-12-07T10:39:33;11.75;;;3.30;;
74503;SDS011;62988;55.776;37.544;2022-12-07T10:42:26;6.57;;;3.60;;
74503;SDS011;62988;55.776;37.544;2022-12-07T10:45:09;5.93;;;2.88;;
74503;SDS011;62988;55.776;37.544;2022-12-07T11:03:52;8.07;;;3.35;;
74503;SDS011;62988;55.776;37.544;2022-12-07T11:06:39;3.90;;;2.13;;
74503;SDS011;62988;55.776;37.544;2022-12-07T11:11:56;6.68;;;1.92;;
74503;SDS011;62988;55.776;37.544;2022-12-07T11:25:14;13.35;;;3.40;;
74503;SDS011;62988;55.776;37.544;2022-12-07T11:28:00;8.13;;;3.25;;
74503;SDS011;62988;55.776;37.544;2022-12-07T11:33:34;8.65;;;3.33;;
74503;SDS011;62988;55.776;37.544;2022-12-07T11:36:31;8.52;;;2.65;;
74503;SDS011;62988;55.776;37.544;2022-12-07T11:39:49;6.80;;;2.60;;
74503;SDS011;62988;55.776;37.544;2022-12-07T11:42:41;7.20;;;2.97;;
74503;SDS011;62988;55.776;37.544;2022-12-07T11:58:40;10.68;;;3.60;;
74503;SDS011;62988;55.776;37.544;2022-12-07T12:01:28;6.22;;;2.45;;
74503;SDS011;62988;55.776;37.544;2022-12-07T12:06:40;10.02;;;3.60;;
74503;SDS011;62988;55.776;37.544;2022-12-07T12:09:27;7.85;;;3.30;;
74503;SDS011;62988;55.776;37.544;2022-12-07T12:25:59;9.23;;;3.25;;
74503;SDS011;62988;55.776;37.544;2022-12-07T12:28:35;6.93;;;3.30;;
74503;SDS011;62988;55.776;37.544;2022-12-07T12:33:53;9.20;;;3.47;;
74503;SDS011;62988;55.776;37.544;2022-12-07T12:36:26;14.48;;;4.18;;
74503;SDS011;62988;55.776;37.544;2022-12-07T12:54:38;6.50;;;2.80;;
74503;SDS011;62988;55.776;37.544;2022-12-07T12:57:31;8.18;;;3.90;;
74503;SDS011;62988;55.776;37.544;2022-12-07T13:00:00;10.05;;;4.45;;
74503;SDS011;62988;55.776;37.544;2022-12-07T13:02:29;6.15;;;2.53;;
74503;SDS011;62988;55.776;37.544;2022-12-07T13:18:03;8.13;;;3.55;;
74503;SDS011;62988;55.776;37.544;2022-12-07T13:20:48;10.68;;;3.75;;
74503;SDS011;62988;55.776;37.544;2022-12-07T13:23:22;12.73;;;4.22;;
74503;SDS011;62988;55.776;37.544;2022-12-07T13:28:37;7.22;;;2.90;;
74503;SDS011;62988;55.776;37.544;2022-12-07T13:33:56;11.98;;;3.50;;
74503;SDS011;62988;55.776;37.544;2022-12-07T13:36:26;14.20;;;4.05;;
74503;SDS011;62988;55.776;37.544;2022-12-07T13:39:16;11.07;;;4.95;;
74503;SDS011;62988;55.776;37.544;2022-12-07T13:41:44;7.90;;;3.30;;
74503;SDS011;62988;55.776;37.544;2022-12-07T13:44:14;8.13;;;2.75;;
74503;SDS011;62988;55.776;37.544;2022-12-07T13:49:38;6.85;;;2.97;;
74503;SDS011;62988;55.776;37.544;2022-12-07T13:52:28;7.50;;;3.35;;
74503;SDS011;62988;55.776;37.544;2022-12-07T13:54:56;8.13;;;3.08;;
74503;SDS011;62988;55.776;37.544;2022-12-07T13:57:31;8.05;;;3.00;;
74503;SDS011;62988;55.776;37.544;2022-12-07T14:00:00;8.10;;;3.22;;
74503;SDS011;62988;55.776;37.544;2022-12-07T14:05:07;9.50;;;3.50;;
74503;SDS011;62988;55.776;37.544;2022-12-07T14:10:30;6.45;;;2.75;;
74503;SDS011;62988;55.776;37.544;2022-12-07T14:12:58;8.75;;;3.42;;
74503;SDS011;62988;55.776;37.544;2022-12-07T14:15:30;8.18;;;2.45;;
74503;SDS011;62988;55.776;37.544;2022-12-07T14:17:57;10.25;;;3.97;;
74503;SDS011;62988;55.776;37.544;2022-12-07T14:23:04;21.35;;;2.78;;
74503;SDS011;62988;55.776;37.544;2022-12-07T14:25:46;12.93;;;4.32;;
74503;SDS011;62988;55.776;37.544;2022-12-07T14:28:30;7.15;;;3.08;;
74503;SDS011;62988;55.776;37.544;2022-12-07T14:30:59;9.48;;;4.13;;
74503;SDS011;62988;55.776;37.544;2022-12-07T14:33:26;9.95;;;4.70;;
74503;SDS011;62988;55.776;37.544;2022-12-07T14:35:52;9.10;;;4.10;;
74503;SDS011;62988;55.776;37.544;2022-12-07T14:38:21;8.13;;;3.53;;
74503;SDS011;62988;55.776;37.544;2022-12-07T14:40:46;10.35;;;3.22;;
74503;SDS011;62988;55.776;37.544;2022-12-07T14:43:15;9.30;;;4.18;;
74503;SDS011;62988;55.776;37.544;2022-12-07T14:45:42;7.90;;;3.28;;
74503;SDS011;62988;55.776;37.544;2022-12-07T14:48:10;7.65;;;3.03;;
74503;SDS011;62988;55.776;37.544;2022-12-07T14:50:38;6.07;;;2.33;;
74503;SDS011;62988;55.776;37.544;2022-12-07T14:53:13;12.27;;;3.70;;
74503;SDS011;62988;55.776;37.544;2022-12-07T14:55:41;7.10;;;3.05;;
74503;SDS011;62988;55.776;37.544;2022-12-07T14:58:11;9.63;;;3.53;;
74503;SDS011;62988;55.776;37.544;2022-12-07T15:00:39;12.77;;;3.58;;
74503;SDS011;62988;55.776;37.544;2022-12-07T15:03:05;9.93;;;3.90;;
74503;SDS011;62988;55.776;37.544;2022-12-07T15:05:30;10.30;;;4.03;;
74503;SDS011;62988;55.776;37.544;2022-12-07T15:07:56;8.85;;;3.53;;
74503;SDS011;62988;55.776;37.544;2022-12-07T15:10:23;7.95;;;3.10;;
74503;SDS011;62988;55.776;37.544;2022-12-07T15:12:58;8.65;;;3.40;;
74503;SDS011;62988;55.776;37.544;2022-12-07T15:15:46;7.90;;;3.10;;
74503;SDS011;62988;55.776;37.544;2022-12-07T15:18:13;6.78;;;3.00;;
74503;SDS011;62988;55.776;37.544;2022-12-07T15:20:40;9.50;;;3.72;;
74503;SDS011;62988;55.776;37.544;2022-12-07T15:23:05;7.68;;;2.28;;
74503;SDS011;62988;55.776;37.544;2022-12-07T15:25:32;6.75;;;2.88;;
74503;SDS011;62988;55.776;37.544;2022-12-07T15:27:58;8.95;;;4.28;;
74503;SDS011;62988;55.776;37.544;2022-12-07T15:30:23;9.13;;;3.17;;
74503;SDS011;62988;55.776;37.544;2022-12-07T15:32:52;9.57;;;3.72;;
74503;SDS011;62988;55.776;37.544;2022-12-07T15:35:17;8.95;;;2.90;;
74503;SDS011;62988;55.776;37.544;2022-12-07T15:37:43;8.18;;;3.20;;
74503;SDS011;62988;55.776;37.544;2022-12-07T15:40:09;7.00;;;3.25;;
74503;SDS011;62988;55.776;37.544;2022-12-07T15:42:35;6.47;;;3.55;;
74503;SDS011;62988;55.776;37.544;2022-12-07T15:45:02;7.13;;;3.20;;
74503;SDS011;62988;55.776;37.544;2022-12-07T15:47:29;10.63;;;2.83;;
74503;SDS011;62988;55.776;37.544;2022-12-07T15:50:01;7.80;;;3.08;;
74503;SDS011;62988;55.776;37.544;2022-12-07T15:52:27;7.65;;;3.58;;
74503;SDS011;62988;55.776;37.544;2022-12-07T15:54:53;11.38;;;3.38;;
74503;SDS011;62988;55.776;37.544;2022-12-07T15:57:18;10.52;;;4.22;;
74503;SDS011;62988;55.776;37.544;2022-12-07T15:59:44;10.57;;;4.80;;
74503;SDS011;62988;55.776;37.544;2022-12-07T16:02:09;7.28;;;3.55;;
74503;SDS011;62988;55.776;37.544;2022-12-07T16:04:35;6.70;;;2.97;;
74503;SDS011;62988;55.776;37.544;2022-12-07T16:07:01;10.65;;;4.40;;
74503;SDS011;62988;55.776;37.544;2022-12-07T16:09:27;10.55;;;2.97;;
74503;SDS011;62988;55.776;37.544;2022-12-07T16:11:53;11.13;;;4.32;;
74503;SDS011;62988;55.776;37.544;2022-12-07T16:14:19;11.50;;;3.47;;
74503;SDS011;62988;55.776;37.544;2022-12-07T16:16:45;9.35;;;3.38;;
74503;SDS011;62988;55.776;37.544;2022-12-07T16:19:11;11.35;;;3.45;;
74503;SDS011;62988;55.776;37.544;2022-12-07T16:21:36;7.97;;;3.38;;
74503;SDS011;62988;55.776;37.544;2022-12-07T16:24:02;8.57;;;2.83;;
74503;SDS011;62988;55.776;37.544;2022-12-07T16:26:28;8.05;;;2.63;;
74503;SDS011;62988;55.776;37.544;2022-12-07T16:28:54;8.32;;;3.83;;
74503;SDS011;62988;55.776;37.544;2022-12-07T16:31:23;8.40;;;3.80;;
74503;SDS011;62988;55.776;37.544;2022-12-07T16:33:52;12.35;;;2.95;;
74503;SDS011;62988;55.776;37.544;2022-12-07T16:36:19;8.70;;;3.63;;
74503;SDS011;62988;55.776;37.544;2022-12-07T16:38:47;8.20;;;3.60;;
74503;SDS011;62988;55.776;37.544;2022-12-07T16:41:13;9.95;;;2.88;;
74503;SDS011;62988;55.776;37.544;2022-12-07T16:43:39;15.13;;;3.72;;
74503;SDS011;62988;55.776;37.544;2022-12-07T16:46:05;8.40;;;3.15;;
74503;SDS011;62988;55.776;37.544;2022-12-07T16:48:34;8.93;;;3.17;;
74503;SDS011;62988;55.776;37.544;2022-12-07T16:51:02;7.03;;;3.63;;
74503;SDS011;62988;55.776;37.544;2022-12-07T16:53:34;6.15;;;2.83;;
74503;SDS011;62988;55.776;37.544;2022-12-07T16:56:00;13.05;;;4.38;;
74503;SDS011;62988;55.776;37.544;2022-12-07T16:58:26;9.60;;;3.70;;
74503;SDS011;62988;55.776;37.544;2022-12-07T17:00:52;9.77;;;3.10;;
74503;SDS011;62988;55.776;37.544;2022-12-07T17:03:17;29.42;;;3.60;;
74503;SDS011;62988;55.776;37.544;2022-12-07T17:05:43;9.93;;;3.13;;
74503;SDS011;62988;55.776;37.544;2022-12-07T17:08:10;14.43;;;3.75;;
74503;SDS011;62988;55.776;37.544;2022-12-07T17:10:40;8.82;;;3.35;;
74503;SDS011;62988;55.776;37.544;2022-12-07T17:13:07;10.65;;;3.95;;
74503;SDS011;62988;55.776;37.544;2022-12-07T17:15:58;8.60;;;3.17;;
74503;SDS011;62988;55.776;37.544;2022-12-07T17:18:29;8.63;;;3.15;;
74503;SDS011;62988;55.776;37.544;2022-12-07T17:21:04;10.35;;;2.80;;
74503;SDS011;62988;55.776;37.544;2022-12-07T17:23:31;6.88;;;3.10;;
74503;SDS011;62988;55.776;37.544;2022-12-07T17:26:11;12.77;;;3.88;;